createdAt,value
2019-02-28T00:00:58.763Z,101015.09
2019-02-28T00:02:02.340Z,101016.96
2019-02-28T00:03:06.105Z,101015.59
2019-02-28T00:04:09.688Z,101011.70
2019-02-28T00:05:13.344Z,101004.33
2019-02-28T00:06:16.918Z,101008.45
2019-02-28T00:07:20.500Z,101010.89
2019-02-28T00:08:24.089Z,101011.45
2019-02-28T00:09:27.611Z,101011.70
2019-02-28T00:10:31.472Z,101007.08
2019-02-28T00:11:36.121Z,101006.77
2019-02-28T00:12:40.261Z,101004.33
2019-02-28T00:13:43.762Z,101003.20
2019-02-28T00:14:47.320Z,101004.58
2019-02-28T00:15:50.968Z,100996.95
2019-02-28T00:16:54.465Z,101001.02
2019-02-28T00:17:57.974Z,101001.83
2019-02-28T00:19:01.479Z,101003.20
2019-02-28T00:20:07.467Z,101003.20
2019-02-28T00:21:11.082Z,100992.19
2019-02-28T00:22:15.363Z,100991.94
2019-02-28T00:23:21.701Z,100994.94
2019-02-28T00:24:27.228Z,100991.70
2019-02-28T00:25:29.531Z,100995.75
2019-02-28T00:26:33.049Z,100993.56
2019-02-28T00:27:36.551Z,100992.51
2019-02-28T00:28:40.085Z,100987.25
2019-02-28T00:29:43.601Z,100992.19
2019-02-28T00:30:47.126Z,100989.19
2019-02-28T00:31:50.803Z,100993.31
2019-02-28T00:32:56.314Z,100995.27
2019-02-28T00:34:04.585Z,100996.07
2019-02-28T00:35:06.343Z,100995.27
2019-02-28T00:36:09.950Z,100990.56
2019-02-28T00:37:13.468Z,100987.05
2019-02-28T00:38:17.059Z,100996.64
2019-02-28T00:39:20.614Z,100997.45
2019-02-28T00:40:24.117Z,100993.64
2019-02-28T00:41:27.648Z,100988.70
2019-02-28T00:42:31.201Z,100998.83
2019-02-28T00:43:34.724Z,100996.64
2019-02-28T00:44:38.220Z,100991.38
2019-02-28T00:45:41.824Z,100993.07
2019-02-28T00:46:45.472Z,100990.56
2019-02-28T00:47:49.016Z,100990.81
2019-02-28T00:48:53.942Z,100985.31
2019-02-28T00:49:57.650Z,100985.31
2019-02-28T00:51:01.161Z,100988.88
2019-02-28T00:52:04.703Z,100985.31
2019-02-28T00:53:08.242Z,100985.31
2019-02-28T00:54:11.770Z,100985.80
2019-02-28T00:55:15.647Z,100988.55
2019-02-28T00:56:19.238Z,100983.61
2019-02-28T00:57:23.682Z,100983.05
2019-02-28T00:58:29.017Z,100988.55
2019-02-28T00:59:33.104Z,100979.48
2019-02-28T01:00:38.045Z,100981.92
2019-02-28T01:01:43.147Z,100986.05
2019-02-28T01:02:51.868Z,100979.48
2019-02-28T01:03:52.447Z,100976.41
2019-02-28T01:04:55.946Z,100977.22
2019-02-28T01:05:59.455Z,100976.41
2019-02-28T01:07:03.018Z,100972.28
2019-02-28T01:08:06.596Z,100975.28
2019-02-28T01:09:10.283Z,100972.84
2019-02-28T01:10:14.250Z,100958.84
2019-02-28T01:11:17.777Z,100961.02
2019-02-28T01:12:21.306Z,100968.16
2019-02-28T01:13:27.381Z,100962.41
2019-02-28T01:14:32.390Z,100962.08
2019-02-28T01:15:35.420Z,100966.78
2019-02-28T01:16:38.911Z,100957.14
2019-02-28T01:17:42.575Z,100954.39
2019-02-28T01:18:46.144Z,100952.77
2019-02-28T01:19:49.728Z,100952.77
2019-02-28T01:20:53.320Z,100953.58
2019-02-28T01:21:56.878Z,100946.45
2019-02-28T01:23:00.504Z,100947.27
2019-02-28T01:24:04.265Z,100942.89
2019-02-28T01:25:13.899Z,100940.95
2019-02-28T01:26:17.563Z,100943.70
2019-02-28T01:27:21.827Z,100939.57
2019-02-28T01:28:26.953Z,100942.33
2019-02-28T01:29:33.001Z,100931.63
2019-02-28T01:30:37.062Z,100939.33
2019-02-28T01:31:42.527Z,100933.82
2019-02-28T01:32:49.761Z,100934.95
2019-02-28T01:33:52.070Z,100933.02
2019-02-28T01:34:55.613Z,100931.39
2019-02-28T01:35:59.203Z,100936.89
2019-02-28T01:37:02.720Z,100934.95
2019-02-28T01:38:06.215Z,100932.77
2019-02-28T01:39:09.811Z,100933.89
2019-02-28T01:40:16.389Z,100930.33
2019-02-28T01:41:19.919Z,100928.95
2019-02-28T01:42:23.527Z,100925.39
2019-02-28T01:43:28.933Z,100929.77
2019-02-28T01:44:35.575Z,100935.03
2019-02-28T01:45:37.746Z,100928.14
2019-02-28T01:46:41.249Z,100931.70
2019-02-28T01:47:44.764Z,100930.58
2019-02-28T01:48:48.355Z,100930.90
2019-02-28T01:49:51.939Z,100927.58
2019-02-28T01:50:55.480Z,100929.52
2019-02-28T01:51:59.073Z,100927.87
2019-02-28T01:53:02.670Z,100926.49
2019-02-28T01:54:06.217Z,100922.68
2019-02-28T01:55:10.757Z,100928.75
2019-02-28T01:56:14.284Z,100930.38
2019-02-28T01:57:17.838Z,100927.87
2019-02-28T01:58:21.352Z,100925.95
2019-02-28T01:59:24.886Z,100923.49
2019-02-28T02:00:28.439Z,100925.12
2019-02-28T02:01:32.058Z,100925.68
2019-02-28T02:02:38.034Z,100925.12
2019-02-28T02:03:41.728Z,100923.73
2019-02-28T02:04:45.786Z,100919.36
2019-02-28T02:05:51.670Z,100923.49
2019-02-28T02:06:59.617Z,100921.63
2019-02-28T02:08:00.770Z,100920.74
2019-02-28T02:09:08.156Z,100917.50
2019-02-28T02:10:21.232Z,100913.05
2019-02-28T02:11:26.663Z,100915.23
2019-02-28T02:12:31.504Z,100909.73
2019-02-28T02:13:36.660Z,100911.99
2019-02-28T02:14:39.314Z,100902.85
2019-02-28T02:15:42.893Z,100906.73
2019-02-28T02:16:46.427Z,100905.36
2019-02-28T02:17:50.055Z,100903.98
2019-02-28T02:18:53.569Z,100900.42
2019-02-28T02:19:57.122Z,100894.67
2019-02-28T02:21:00.911Z,100890.22
2019-02-28T02:22:09.122Z,100888.92
2019-02-28T02:23:09.922Z,100886.17
2019-02-28T02:24:13.448Z,100891.59
2019-02-28T02:25:17.051Z,100889.73
2019-02-28T02:26:20.561Z,100884.80
2019-02-28T02:27:24.148Z,100885.60
2019-02-28T02:28:27.885Z,100887.79
2019-02-28T02:29:32.444Z,100885.84
2019-02-28T02:30:36.670Z,100878.16
2019-02-28T02:31:40.318Z,100880.10
2019-02-28T02:32:43.846Z,100878.72
2019-02-28T02:33:52.346Z,100874.35
2019-02-28T02:34:52.569Z,100875.16
2019-02-28T02:35:56.085Z,100873.78
2019-02-28T02:36:59.602Z,100871.84
2019-02-28T02:38:04.591Z,100861.72
2019-02-28T02:39:08.375Z,100854.92
2019-02-28T02:40:14.299Z,100854.59
2019-02-28T02:41:20.880Z,100855.41
2019-02-28T02:42:24.494Z,100860.10
2019-02-28T02:43:28.000Z,100857.91
2019-02-28T02:44:32.073Z,100855.73
2019-02-28T02:45:41.819Z,100851.11
2019-02-28T02:46:40.908Z,100851.68
2019-02-28T02:47:44.778Z,100853.05
2019-02-28T02:48:48.294Z,100851.68
2019-02-28T02:49:56.551Z,100850.87
2019-02-28T02:50:57.164Z,100849.25
2019-02-28T02:52:00.658Z,100842.12
2019-02-28T02:53:05.590Z,100852.00
2019-02-28T02:54:09.463Z,100842.12
2019-02-28T02:55:13.703Z,100843.50
2019-02-28T02:56:17.276Z,100839.12
2019-02-28T02:57:20.780Z,100839.12
2019-02-28T02:58:27.832Z,100834.72
2019-02-28T02:59:37.550Z,100834.48
2019-02-28T03:00:34.907Z,100839.98
2019-02-28T03:01:38.427Z,100834.48
2019-02-28T03:02:41.994Z,100834.48
2019-02-28T03:03:45.515Z,100837.23
2019-02-28T03:04:49.049Z,100835.29
2019-02-28T03:05:52.545Z,100831.48
2019-02-28T03:06:56.130Z,100830.91
2019-02-28T03:08:00.960Z,100830.11
2019-02-28T03:09:09.985Z,100830.11
2019-02-28T03:10:18.044Z,100830.11
2019-02-28T03:11:24.750Z,100825.48
2019-02-28T03:12:31.162Z,100832.61
2019-02-28T03:13:32.618Z,100832.61
2019-02-28T03:14:36.137Z,100830.19
2019-02-28T03:15:39.639Z,100828.00
2019-02-28T03:16:43.145Z,100831.07
2019-02-28T03:17:48.490Z,100830.75
2019-02-28T03:18:57.001Z,100832.69
2019-02-28T03:19:57.169Z,100828.56
2019-02-28T03:21:00.981Z,100826.94
2019-02-28T03:22:04.585Z,100828.64
2019-02-28T03:23:08.199Z,100822.89
2019-02-28T03:24:15.166Z,100828.88
2019-02-28T03:25:17.592Z,100825.89
2019-02-28T03:26:21.076Z,100827.83
2019-02-28T03:27:24.671Z,100832.52
2019-02-28T03:28:32.160Z,100829.20
2019-02-28T03:29:33.427Z,100826.74
2019-02-28T03:30:36.968Z,100829.77
2019-02-28T03:31:40.459Z,100832.52
2019-02-28T03:32:43.963Z,100830.87
2019-02-28T03:33:47.485Z,100831.67
2019-02-28T03:34:58.346Z,100831.19
2019-02-28T03:35:56.225Z,100827.88
2019-02-28T03:36:59.708Z,100824.88
2019-02-28T03:38:10.562Z,100822.94
2019-02-28T03:39:08.487Z,100829.00
2019-02-28T03:40:13.326Z,100831.19
2019-02-28T03:41:18.183Z,100821.31
2019-02-28T03:42:28.536Z,100823.25
2019-02-28T03:43:27.236Z,100827.38
2019-02-28T03:44:30.762Z,100830.13
2019-02-28T03:45:35.387Z,100826.58
2019-02-28T03:46:39.037Z,100826.58
2019-02-28T03:47:42.637Z,100827.67
2019-02-28T03:48:46.122Z,100831.27
2019-02-28T03:49:50.282Z,100830.13
2019-02-28T03:50:55.323Z,100832.89
2019-02-28T03:52:05.548Z,100830.70
2019-02-28T03:53:04.627Z,100831.19
2019-02-28T03:54:08.139Z,100834.75
2019-02-28T03:55:13.099Z,100830.37
2019-02-28T03:56:16.852Z,100832.00
2019-02-28T03:57:27.970Z,100826.25
2019-02-28T03:58:25.709Z,100819.38
2019-02-28T03:59:29.372Z,100825.12
2019-02-28T04:00:34.198Z,100819.70
2019-02-28T04:01:44.547Z,100824.56
2019-02-28T04:02:43.283Z,100825.37
2019-02-28T04:03:47.114Z,100825.12
2019-02-28T04:04:50.776Z,100823.75
2019-02-28T04:05:54.371Z,100817.44
2019-02-28T04:06:57.996Z,100822.69
2019-02-28T04:08:01.526Z,100819.86
2019-02-28T04:09:08.431Z,100821.80
2019-02-28T04:10:16.740Z,100825.37
2019-02-28T04:11:19.896Z,100816.55
2019-02-28T04:12:23.417Z,100811.56
2019-02-28T04:13:26.913Z,100815.30
2019-02-28T04:14:33.138Z,100810.36
2019-02-28T04:15:35.894Z,100816.11
2019-02-28T04:16:39.474Z,100813.59
2019-02-28T04:17:43.064Z,100813.80
2019-02-28T04:18:46.901Z,100809.91
2019-02-28T04:19:58.514Z,100807.08
2019-02-28T04:20:55.881Z,100811.62
2019-02-28T04:21:59.465Z,100810.89
2019-02-28T04:23:03.035Z,100806.31
2019-02-28T04:24:12.711Z,100808.66
2019-02-28T04:25:12.349Z,100807.72
2019-02-28T04:26:15.903Z,100806.51
2019-02-28T04:27:19.552Z,100808.53
2019-02-28T04:28:23.239Z,100801.56
2019-02-28T04:29:31.170Z,100804.23
2019-02-28T04:30:34.016Z,100806.61
2019-02-28T04:31:37.742Z,100809.85
2019-02-28T04:32:41.503Z,100806.20
2019-02-28T04:33:44.981Z,100804.90
2019-02-28T04:34:49.105Z,100802.66
2019-02-28T04:35:56.820Z,100803.14
2019-02-28T04:36:58.691Z,100810.52
2019-02-28T04:38:02.200Z,100801.59
2019-02-28T04:39:06.689Z,100805.48
2019-02-28T04:40:11.850Z,100798.76
2019-02-28T04:41:15.416Z,100801.19
2019-02-28T04:42:18.920Z,100806.45
2019-02-28T04:43:22.429Z,100805.32
2019-02-28T04:44:25.945Z,100806.94
2019-02-28T04:45:29.458Z,100801.94
2019-02-28T04:46:33.063Z,100803.80
2019-02-28T04:47:37.301Z,100797.42
2019-02-28T04:48:41.888Z,100800.66
2019-02-28T04:49:45.535Z,100800.42
2019-02-28T04:50:49.082Z,100795.39
2019-02-28T04:51:52.613Z,100799.28
2019-02-28T04:52:56.120Z,100807.79
2019-02-28T04:53:59.648Z,100804.31
2019-02-28T04:55:03.939Z,100804.31
2019-02-28T04:56:11.180Z,100800.18
2019-02-28T04:57:12.793Z,100800.18
2019-02-28T04:58:16.277Z,100802.19
2019-02-28T04:59:19.805Z,100802.19
2019-02-28T05:00:23.379Z,100799.99
2019-02-28T05:01:26.871Z,100794.21
2019-02-28T05:02:30.450Z,100793.97
2019-02-28T05:03:33.952Z,100798.67
2019-02-28T05:04:37.469Z,100795.11
2019-02-28T05:05:40.975Z,100801.75
2019-02-28T05:06:44.452Z,100799.81
2019-02-28T05:07:48.017Z,100791.95
2019-02-28T05:08:51.544Z,100799.17
2019-02-28T05:09:55.044Z,100799.17
2019-02-28T05:10:58.544Z,100801.20
2019-02-28T05:12:02.466Z,100799.83
2019-02-28T05:13:07.295Z,100799.83
2019-02-28T05:14:10.803Z,100797.55
2019-02-28T05:15:15.035Z,100803.87
2019-02-28T05:16:18.609Z,100799.73
2019-02-28T05:17:22.909Z,100805.48
2019-02-28T05:18:27.636Z,100809.30
2019-02-28T05:19:32.325Z,100808.40
2019-02-28T05:20:36.953Z,100808.16
2019-02-28T05:21:40.521Z,100808.97
2019-02-28T05:22:44.020Z,100809.53
2019-02-28T05:23:47.538Z,100807.91
2019-02-28T05:24:51.039Z,100807.34
2019-02-28T05:25:54.551Z,100807.11
2019-02-28T05:27:00.131Z,100791.48
2019-02-28T05:28:06.680Z,100789.61
2019-02-28T05:29:11.866Z,100792.85
2019-02-28T05:30:19.262Z,100787.59
2019-02-28T05:31:24.207Z,100792.20
2019-02-28T05:32:27.831Z,100793.91
2019-02-28T05:33:31.413Z,100790.82
2019-02-28T05:34:34.946Z,100798.67
2019-02-28T05:35:38.593Z,100792.36
2019-02-28T05:36:42.095Z,100797.81
2019-02-28T05:37:48.039Z,100795.30
2019-02-28T05:38:53.603Z,100795.30
2019-02-28T05:39:56.136Z,100795.53
2019-02-28T05:40:59.707Z,100795.30
2019-02-28T05:42:03.231Z,100790.02
2019-02-28T05:43:06.754Z,100787.27
2019-02-28T05:44:10.246Z,100781.76
2019-02-28T05:45:14.782Z,100781.52
2019-02-28T05:46:20.372Z,100777.20
2019-02-28T05:47:26.001Z,100781.28
2019-02-28T05:48:29.639Z,100787.59
2019-02-28T05:49:33.133Z,100787.89
2019-02-28T05:50:36.689Z,100788.98
2019-02-28T05:51:40.207Z,100788.98
2019-02-28T05:52:43.851Z,100785.66
2019-02-28T05:53:47.825Z,100786.89
2019-02-28T05:54:51.463Z,100784.12
2019-02-28T05:55:58.835Z,100792.06
2019-02-28T05:57:00.415Z,100789.40
2019-02-28T05:58:04.114Z,100793.45
2019-02-28T05:59:07.612Z,100797.02
2019-02-28T06:00:16.974Z,100792.87
2019-02-28T06:01:20.630Z,100799.77
2019-02-28T06:02:26.451Z,100794.26
2019-02-28T06:03:30.478Z,100798.63
2019-02-28T06:04:34.165Z,100797.58
2019-02-28T06:05:39.244Z,100795.16
2019-02-28T06:06:42.833Z,100793.20
2019-02-28T06:07:46.362Z,100794.58
2019-02-28T06:08:49.858Z,100795.39
2019-02-28T06:09:53.465Z,100790.21
2019-02-28T06:11:00.685Z,100790.78
2019-02-28T06:12:02.349Z,100792.64
2019-02-28T06:13:05.911Z,100791.02
2019-02-28T06:14:09.519Z,100793.69
2019-02-28T06:15:15.363Z,100794.50
2019-02-28T06:16:18.935Z,100790.27
2019-02-28T06:17:22.440Z,100790.27
2019-02-28T06:18:27.013Z,100785.09
2019-02-28T06:19:31.289Z,100785.09
2019-02-28T06:20:34.949Z,100792.79
2019-02-28T06:21:38.470Z,100786.71
2019-02-28T06:22:42.123Z,100782.34
2019-02-28T06:23:45.650Z,100777.97
2019-02-28T06:24:49.184Z,100770.03
2019-02-28T06:25:55.761Z,100770.03
2019-02-28T06:26:58.027Z,100769.78
2019-02-28T06:28:01.607Z,100765.66
2019-02-28T06:29:05.888Z,100769.22
2019-02-28T06:30:12.269Z,100770.03
2019-02-28T06:31:15.825Z,100775.54
2019-02-28T06:32:23.303Z,100774.16
2019-02-28T06:33:24.576Z,100778.20
2019-02-28T06:34:28.144Z,100779.02
2019-02-28T06:35:31.641Z,100778.77
2019-02-28T06:36:35.199Z,100774.07
2019-02-28T06:37:39.222Z,100777.97
2019-02-28T06:38:42.829Z,100777.97
2019-02-28T06:39:46.352Z,100778.20
2019-02-28T06:40:49.828Z,100766.94
2019-02-28T06:41:53.378Z,100766.94
2019-02-28T06:42:56.947Z,100772.45
2019-02-28T06:44:00.466Z,100771.97
2019-02-28T06:45:05.040Z,100776.67
2019-02-28T06:46:09.301Z,100775.86
2019-02-28T06:47:14.190Z,100777.81
2019-02-28T06:48:20.363Z,100774.88
2019-02-28T06:49:23.485Z,100777.09
2019-02-28T06:50:27.039Z,100780.56
2019-02-28T06:51:30.577Z,100780.00
2019-02-28T06:52:34.181Z,100776.11
2019-02-28T06:53:38.792Z,100779.67
2019-02-28T06:54:42.292Z,100779.10
2019-02-28T06:55:48.184Z,100783.23
2019-02-28T06:56:54.042Z,100787.37
2019-02-28T06:57:58.899Z,100787.13
2019-02-28T06:59:04.941Z,100789.31
2019-02-28T07:00:13.426Z,100789.88
2019-02-28T07:01:22.648Z,100787.45
2019-02-28T07:02:24.583Z,100784.38
2019-02-28T07:03:28.096Z,100785.51
2019-02-28T07:04:31.594Z,100781.38
2019-02-28T07:05:35.237Z,100775.05
2019-02-28T07:06:38.781Z,100775.05
2019-02-28T07:07:45.618Z,100774.25
2019-02-28T07:08:47.649Z,100778.14
2019-02-28T07:09:51.138Z,100784.52
2019-02-28T07:10:54.657Z,100781.34
2019-02-28T07:11:58.157Z,100781.34
2019-02-28T07:13:04.475Z,100776.00
2019-02-28T07:14:06.949Z,100776.00
2019-02-28T07:15:11.135Z,100780.22
2019-02-28T07:16:14.670Z,100779.73
2019-02-28T07:17:18.222Z,100779.01
2019-02-28T07:18:21.850Z,100782.14
2019-02-28T07:19:26.283Z,100774.30
2019-02-28T07:20:30.669Z,100778.08
2019-02-28T07:21:34.653Z,100784.32
2019-02-28T07:22:40.038Z,100788.05
2019-02-28T07:23:43.573Z,100784.70
2019-02-28T07:24:47.297Z,100788.98
2019-02-28T07:25:52.424Z,100782.84
2019-02-28T07:26:55.973Z,100779.41
2019-02-28T07:28:01.567Z,100783.94
2019-02-28T07:29:04.814Z,100786.33
2019-02-28T07:30:17.283Z,100776.73
2019-02-28T07:31:21.706Z,100780.73
2019-02-28T07:32:23.973Z,100777.04
2019-02-28T07:33:27.576Z,100771.31
2019-02-28T07:34:31.059Z,100768.63
2019-02-28T07:35:36.834Z,100771.48
2019-02-28T07:36:41.492Z,100777.52
2019-02-28T07:37:45.164Z,100775.91
2019-02-28T07:38:48.680Z,100771.60
2019-02-28T07:39:52.242Z,100775.52
2019-02-28T07:40:55.868Z,100772.84
2019-02-28T07:42:02.182Z,100780.27
2019-02-28T07:43:05.870Z,100779.28
2019-02-28T07:44:09.557Z,100781.78
2019-02-28T07:45:14.217Z,100783.75
2019-02-28T07:46:17.773Z,100776.64
2019-02-28T07:47:21.310Z,100784.88
2019-02-28T07:48:29.077Z,100785.13
2019-02-28T07:49:35.849Z,100782.37
2019-02-28T07:50:35.512Z,100783.19
2019-02-28T07:51:38.982Z,100788.44
2019-02-28T07:52:42.747Z,100781.81
2019-02-28T07:53:46.243Z,100787.23
2019-02-28T07:54:51.801Z,100780.86
2019-02-28T07:55:55.087Z,100784.11
2019-02-28T07:56:58.658Z,100776.25
2019-02-28T07:58:02.238Z,100787.13
2019-02-28T07:59:06.389Z,100783.91
2019-02-28T08:00:21.129Z,100789.41
2019-02-28T08:01:27.732Z,100791.66
2019-02-28T08:02:29.991Z,100787.35
2019-02-28T08:03:33.573Z,100790.98
2019-02-28T08:04:37.196Z,100783.11
2019-02-28T08:05:40.681Z,100785.30
2019-02-28T08:06:44.190Z,100786.98
2019-02-28T08:07:52.081Z,100778.44
2019-02-28T08:08:53.069Z,100779.81
2019-02-28T08:09:58.080Z,100783.36
2019-02-28T08:11:01.891Z,100782.86
2019-02-28T08:12:05.570Z,100777.38
2019-02-28T08:13:09.176Z,100782.73
2019-02-28T08:14:12.997Z,100775.98
2019-02-28T08:15:22.437Z,100773.32
2019-02-28T08:16:24.325Z,100771.43
2019-02-28T08:17:27.803Z,100769.66
2019-02-28T08:18:31.700Z,100754.41
2019-02-28T08:19:35.174Z,100760.05
2019-02-28T08:20:38.774Z,100758.53
2019-02-28T08:21:47.006Z,100761.95
2019-02-28T08:22:47.750Z,100762.64
2019-02-28T08:23:51.271Z,100755.87
2019-02-28T08:24:54.858Z,100757.67
2019-02-28T08:25:58.428Z,100756.25
2019-02-28T08:27:01.954Z,100761.92
2019-02-28T08:28:05.454Z,100756.59
2019-02-28T08:29:11.620Z,100760.39
2019-02-28T08:30:20.603Z,100760.32
2019-02-28T08:31:24.238Z,100761.65
2019-02-28T08:32:27.925Z,100759.95
2019-02-28T08:33:31.506Z,100754.38
2019-02-28T08:34:35.013Z,100756.00
2019-02-28T08:35:38.688Z,100752.13
2019-02-28T08:36:43.833Z,100757.30
2019-02-28T08:37:47.583Z,100753.98
2019-02-28T08:38:51.108Z,100753.66
2019-02-28T08:39:54.836Z,100758.84
2019-02-28T08:40:58.411Z,100757.15
2019-02-28T08:42:04.364Z,100760.42
2019-02-28T08:43:07.192Z,100757.67
2019-02-28T08:44:10.845Z,100763.66
2019-02-28T08:45:15.812Z,100766.89
2019-02-28T08:46:19.390Z,100760.59
2019-02-28T08:47:22.929Z,100765.53
2019-02-28T08:48:31.238Z,100769.41
2019-02-28T08:49:31.842Z,100769.41
2019-02-28T08:50:35.362Z,100766.86
2019-02-28T08:51:39.059Z,100763.02
2019-02-28T08:52:42.719Z,100771.84
2019-02-28T08:53:50.955Z,100764.97
2019-02-28T08:54:51.614Z,100763.34
2019-02-28T08:55:55.303Z,100767.16
2019-02-28T08:56:59.003Z,100773.50
2019-02-28T08:58:06.139Z,100771.48
2019-02-28T08:59:11.829Z,100770.10
2019-02-28T09:00:16.108Z,100768.73
2019-02-28T09:01:19.618Z,100764.27
2019-02-28T09:02:23.141Z,100765.92
2019-02-28T09:03:27.228Z,100762.61
2019-02-28T09:04:40.756Z,100764.80
2019-02-28T09:05:36.988Z,100759.86
2019-02-28T09:06:40.922Z,100762.85
2019-02-28T09:07:50.740Z,100762.85
2019-02-28T09:08:51.099Z,100753.22
2019-02-28T09:09:54.656Z,100763.74
2019-02-28T09:10:58.137Z,100762.05
2019-02-28T09:12:01.699Z,100766.49
2019-02-28T09:13:08.689Z,100767.03
2019-02-28T09:14:10.659Z,100763.17
2019-02-28T09:15:16.201Z,100764.55
2019-02-28T09:16:19.763Z,100763.74
2019-02-28T09:17:23.285Z,100767.03
2019-02-28T09:18:26.874Z,100765.12
2019-02-28T09:19:32.498Z,100762.36
2019-02-28T09:20:35.724Z,100762.61
2019-02-28T09:21:41.168Z,100756.30
2019-02-28T09:22:44.588Z,100757.59
2019-02-28T09:23:48.311Z,100749.91
2019-02-28T09:24:51.980Z,100750.95
2019-02-28T09:25:56.745Z,100743.84
2019-02-28T09:27:01.380Z,100746.83
2019-02-28T09:28:06.132Z,100745.22
2019-02-28T09:29:09.652Z,100739.95
2019-02-28T09:30:26.458Z,100739.95
2019-02-28T09:31:30.151Z,100736.07
2019-02-28T09:32:33.624Z,100733.31
2019-02-28T09:33:37.361Z,100731.94
2019-02-28T09:34:43.285Z,100734.94
2019-02-28T09:35:46.996Z,100732.19
2019-02-28T09:36:55.309Z,100731.05
2019-02-28T09:37:55.767Z,100731.54
2019-02-28T09:38:59.721Z,100731.30
2019-02-28T09:40:03.294Z,100728.06
2019-02-28T09:41:06.946Z,100722.88
2019-02-28T09:42:14.857Z,100719.32
2019-02-28T09:43:15.659Z,100713.33
2019-02-28T09:44:19.274Z,100708.72
2019-02-28T09:45:24.679Z,100709.02
2019-02-28T09:46:28.191Z,100703.83
2019-02-28T09:47:31.690Z,100705.77
2019-02-28T09:48:37.101Z,100708.01
2019-02-28T09:49:40.663Z,100708.33
2019-02-28T09:50:44.371Z,100711.16
2019-02-28T09:51:47.852Z,100713.91
2019-02-28T09:52:51.499Z,100710.92
2019-02-28T09:53:55.125Z,100714.48
2019-02-28T09:54:59.241Z,100710.11
2019-02-28T09:56:08.877Z,100725.00
2019-02-28T09:57:08.736Z,100720.87
2019-02-28T09:58:12.254Z,100717.88
2019-02-28T09:59:15.856Z,100713.19
2019-02-28T10:00:23.194Z,100719.49
2019-02-28T10:01:26.907Z,100716.98
2019-02-28T10:02:30.689Z,100721.11
2019-02-28T10:03:34.736Z,100717.47
2019-02-28T10:04:38.400Z,100716.34
2019-02-28T10:05:43.345Z,100720.71
2019-02-28T10:06:48.570Z,100732.77
2019-02-28T10:07:52.335Z,100728.72
2019-02-28T10:08:55.889Z,100730.29
2019-02-28T10:09:59.505Z,100737.41
2019-02-28T10:11:03.207Z,100731.09
2019-02-28T10:12:07.814Z,100732.96
2019-02-28T10:14:37.562Z,100723.58
2019-02-28T10:15:41.830Z,100718.08
2019-02-28T10:16:45.958Z,100714.47
2019-02-28T10:17:50.025Z,100717.22
2019-02-28T10:18:53.869Z,100717.13
2019-02-28T10:19:57.450Z,100715.44
2019-02-28T10:21:01.908Z,100718.43
2019-02-28T10:22:06.627Z,100716.68
2019-02-28T10:23:10.103Z,100717.89
2019-02-28T10:24:13.897Z,100722.09
2019-02-28T10:25:18.355Z,100724.72
2019-02-28T10:26:22.071Z,100719.77
2019-02-28T10:27:26.889Z,100719.55
2019-02-28T10:28:32.960Z,100718.00
2019-02-28T10:29:41.962Z,100713.37
2019-02-28T10:32:27.541Z,100713.39
2019-02-28T10:33:31.032Z,100707.44
2019-02-28T10:34:35.444Z,100708.52
2019-02-28T10:35:40.066Z,100708.36
2019-02-28T10:36:47.782Z,100709.80
2019-02-28T10:39:18.255Z,100708.55
2019-02-28T10:40:29.023Z,100705.94
2019-02-28T10:41:35.620Z,100714.83
2019-02-28T10:42:40.235Z,100714.83
2019-02-28T10:43:49.885Z,100722.38
2019-02-28T10:45:03.623Z,100718.86
2019-02-28T10:46:07.281Z,100724.04
2019-02-28T10:47:10.806Z,100718.44
2019-02-28T10:48:16.366Z,100722.23
2019-02-28T10:49:21.121Z,100728.40
2019-02-28T10:50:33.263Z,100725.06
2019-02-28T10:51:35.573Z,100722.78
2019-02-28T10:52:42.472Z,100730.16
2019-02-28T10:53:46.008Z,100730.16
2019-02-28T10:54:49.681Z,100731.44
2019-02-28T10:55:57.565Z,100731.53
2019-02-28T10:56:59.616Z,100726.02
2019-02-28T10:58:03.549Z,100729.44
2019-02-28T10:59:07.233Z,100730.92
2019-02-28T11:00:23.925Z,100731.48
2019-02-28T11:01:27.623Z,100728.73
2019-02-28T11:02:31.293Z,100729.64
2019-02-28T11:03:34.894Z,100737.67
2019-02-28T11:04:42.809Z,100728.17
2019-02-28T11:05:44.995Z,100731.51
2019-02-28T11:06:48.623Z,100734.83
2019-02-28T11:07:52.495Z,100734.83
2019-02-28T11:08:56.134Z,100732.08
2019-02-28T11:10:01.842Z,100737.35
2019-02-28T11:11:07.428Z,100726.56
2019-02-28T11:12:10.543Z,100730.27
2019-02-28T11:13:16.955Z,100730.27
2019-02-28T11:14:20.963Z,100733.53
2019-02-28T11:15:25.654Z,100738.05
2019-02-28T11:16:29.318Z,100732.20
2019-02-28T11:17:34.169Z,100731.63
2019-02-28T11:18:37.807Z,100731.77
2019-02-28T11:19:41.413Z,100723.97
2019-02-28T11:20:45.235Z,100735.23
2019-02-28T11:21:48.798Z,100724.55
2019-02-28T11:22:52.668Z,100724.55
2019-02-28T11:23:56.194Z,100726.25
2019-02-28T11:25:00.856Z,100726.25
2019-02-28T11:26:06.489Z,100719.55
2019-02-28T11:27:10.612Z,100722.22
2019-02-28T11:28:14.730Z,100726.92
2019-02-28T11:29:18.273Z,100715.32
2019-02-28T11:30:29.967Z,100716.94
2019-02-28T11:31:33.539Z,100697.92
2019-02-28T11:32:37.098Z,100709.70
2019-02-28T11:33:40.836Z,100714.55
2019-02-28T11:34:45.831Z,100701.74
2019-02-28T11:35:49.715Z,100701.74
2019-02-28T11:36:53.237Z,100710.83
2019-02-28T11:37:56.958Z,100702.41
2019-02-28T11:39:00.624Z,100706.69
2019-02-28T11:40:08.508Z,100705.88
2019-02-28T11:41:11.114Z,100705.88
2019-02-28T11:42:14.677Z,100707.16
2019-02-28T11:43:18.566Z,100701.27
2019-02-28T11:44:22.164Z,100707.09
2019-02-28T11:45:34.571Z,100707.09
2019-02-28T11:46:38.229Z,100701.91
2019-02-28T11:47:42.648Z,100703.95
2019-02-28T11:48:46.859Z,100699.01
2019-02-28T11:49:50.513Z,100708.28
2019-02-28T11:50:54.171Z,100708.28
2019-02-28T11:51:57.812Z,100696.21
2019-02-28T11:53:04.937Z,100704.58
2019-02-28T11:54:06.749Z,100704.58
2019-02-28T11:55:12.443Z,100697.04
2019-02-28T11:56:16.085Z,100697.04
2019-02-28T11:57:20.696Z,100694.66
2019-02-28T11:58:24.210Z,100694.66
2019-02-28T11:59:27.848Z,100703.03
2019-02-28T12:00:35.921Z,100700.94
2019-02-28T12:01:39.196Z,100697.13
2019-02-28T12:02:42.794Z,100693.00
2019-02-28T12:03:46.379Z,100690.67
2019-02-28T12:04:49.897Z,100690.67
2019-02-28T12:05:53.686Z,100688.48
2019-02-28T12:07:00.742Z,100690.20
2019-02-28T12:08:02.651Z,100681.75
2019-02-28T12:09:07.202Z,100683.70
2019-02-28T12:10:11.149Z,100683.70
2019-02-28T12:11:14.824Z,100691.50
2019-02-28T12:12:18.310Z,100691.50
2019-02-28T12:13:21.893Z,100679.38
2019-02-28T12:14:26.410Z,100682.61
2019-02-28T12:15:32.883Z,100685.13
2019-02-28T12:16:36.455Z,100685.13
2019-02-28T12:17:40.089Z,100684.08
2019-02-28T12:18:43.673Z,100681.95